Saint Columbans, Nebraska
Current Conditions -  °F | °C
As of 9:58 AM on Sunday 25 Jan 2015 (Local Time) from KOFF Reporting Station
Overcast Overcast  
Wind Chill: -3°   Ceiling: 1200
Heat Index:   Visibility: 10mi
Dew Point:   Wind: 18mph
Humidity: 85%   Direction: 350°N
Pressure: 29.89"   Gusts: 30mph
Location:  41.1°N, 95.87°W
Report Text: KOFF 251558Z AUTO 35016G26KT 10SM OVC012 03/00 A2989 RMK AO2 PK WND 33029/07 UPB1535E1539RAB1539E1549 SLP132 P0000 T00250002 $
Loading
Personal Weather Stations






























Interactive Weather Map New forecast layout! Learn more

10-Day Weather Forecast

Advertisements
Track Severe Weather on mobile